sensor_id;sensor_type;location;lat;lon;timestamp;temperature;humidity
38480;DHT22;62333;51.980;5.934;2023-06-19T00:01:55;24.60;52.50
38480;DHT22;62333;51.980;5.934;2023-06-19T00:04:21;24.60;52.50
38480;DHT22;62333;51.980;5.934;2023-06-19T00:06:47;24.60;52.70
38480;DHT22;62333;51.980;5.934;2023-06-19T00:09:14;24.60;52.70
38480;DHT22;62333;51.980;5.934;2023-06-19T00:11:39;24.60;52.70
38480;DHT22;62333;51.980;5.934;2023-06-19T00:14:05;24.50;52.90
38480;DHT22;62333;51.980;5.934;2023-06-19T00:16:31;24.50;52.90
38480;DHT22;62333;51.980;5.934;2023-06-19T00:18:57;24.50;53.60
38480;DHT22;62333;51.980;5.934;2023-06-19T00:21:24;24.50;53.00
38480;DHT22;62333;51.980;5.934;2023-06-19T00:23:51;24.50;53.20
38480;DHT22;62333;51.980;5.934;2023-06-19T00:26:18;24.50;53.30
38480;DHT22;62333;51.980;5.934;2023-06-19T00:28:47;24.50;53.30
38480;DHT22;62333;51.980;5.934;2023-06-19T00:31:15;24.50;53.70
38480;DHT22;62333;51.980;5.934;2023-06-19T00:33:42;24.40;54.30
38480;DHT22;62333;51.980;5.934;2023-06-19T00:36:11;24.40;54.60
38480;DHT22;62333;51.980;5.934;2023-06-19T00:38:38;24.30;54.80
38480;DHT22;62333;51.980;5.934;2023-06-19T00:41:04;24.30;54.90
38480;DHT22;62333;51.980;5.934;2023-06-19T00:43:31;24.30;55.10
38480;DHT22;62333;51.980;5.934;2023-06-19T00:45:58;24.30;55.10
38480;DHT22;62333;51.980;5.934;2023-06-19T00:48:24;24.30;55.20
38480;DHT22;62333;51.980;5.934;2023-06-19T00:50:50;24.40;55.20
38480;DHT22;62333;51.980;5.934;2023-06-19T00:53:17;24.40;55.70
38480;DHT22;62333;51.980;5.934;2023-06-19T00:55:43;24.30;55.90
38480;DHT22;62333;51.980;5.934;2023-06-19T00:58:10;24.30;55.90
38480;DHT22;62333;51.980;5.934;2023-06-19T01:00:35;24.30;56.00
38480;DHT22;62333;51.980;5.934;2023-06-19T01:03:01;24.30;56.10
38480;DHT22;62333;51.980;5.934;2023-06-19T01:05:27;24.30;56.20
38480;DHT22;62333;51.980;5.934;2023-06-19T01:08:13;24.30;56.30
38480;DHT22;62333;51.980;5.934;2023-06-19T01:10:59;24.30;56.30
38480;DHT22;62333;51.980;5.934;2023-06-19T01:15:55;24.20;56.40
38480;DHT22;62333;51.980;5.934;2023-06-19T01:18:21;24.20;56.50
38480;DHT22;62333;51.980;5.934;2023-06-19T01:20:49;24.20;56.50
38480;DHT22;62333;51.980;5.934;2023-06-19T01:23:14;24.20;56.50
38480;DHT22;62333;51.980;5.934;2023-06-19T01:25:40;24.20;56.50
38480;DHT22;62333;51.980;5.934;2023-06-19T01:28:08;24.20;56.60
38480;DHT22;62333;51.980;5.934;2023-06-19T01:30:37;24.20;56.60
38480;DHT22;62333;51.980;5.934;2023-06-19T01:33:15;24.10;56.60
38480;DHT22;62333;51.980;5.934;2023-06-19T01:35:43;24.10;57.00
38480;DHT22;62333;51.980;5.934;2023-06-19T01:38:12;24.20;56.40
38480;DHT22;62333;51.980;5.934;2023-06-19T01:40:40;24.20;56.30
38480;DHT22;62333;51.980;5.934;2023-06-19T01:43:07;24.20;56.20
38480;DHT22;62333;51.980;5.934;2023-06-19T01:45:33;24.10;56.30
38480;DHT22;62333;51.980;5.934;2023-06-19T01:47:59;24.10;56.50
38480;DHT22;62333;51.980;5.934;2023-06-19T01:50:25;24.00;56.50
38480;DHT22;62333;51.980;5.934;2023-06-19T01:52:51;24.00;56.70
38480;DHT22;62333;51.980;5.934;2023-06-19T01:55:17;23.90;56.90
38480;DHT22;62333;51.980;5.934;2023-06-19T01:57:43;23.90;56.90
38480;DHT22;62333;51.980;5.934;2023-06-19T02:00:11;23.80;57.00
38480;DHT22;62333;51.980;5.934;2023-06-19T02:02:37;23.80;57.20
38480;DHT22;62333;51.980;5.934;2023-06-19T02:05:03;23.80;57.30
38480;DHT22;62333;51.980;5.934;2023-06-19T02:07:30;23.80;57.40
38480;DHT22;62333;51.980;5.934;2023-06-19T02:09:56;23.80;57.60
38480;DHT22;62333;51.980;5.934;2023-06-19T02:12:21;23.70;57.70
38480;DHT22;62333;51.980;5.934;2023-06-19T02:14:47;23.70;58.10
38480;DHT22;62333;51.980;5.934;2023-06-19T02:17:13;23.60;58.30
38480;DHT22;62333;51.980;5.934;2023-06-19T02:19:38;23.60;58.50
38480;DHT22;62333;51.980;5.934;2023-06-19T02:22:05;23.50;58.80
38480;DHT22;62333;51.980;5.934;2023-06-19T02:24:32;23.50;59.00
38480;DHT22;62333;51.980;5.934;2023-06-19T02:26:58;23.40;59.00
38480;DHT22;62333;51.980;5.934;2023-06-19T02:29:24;23.40;59.00
38480;DHT22;62333;51.980;5.934;2023-06-19T02:31:50;23.40;59.40
38480;DHT22;62333;51.980;5.934;2023-06-19T02:34:16;23.30;59.70
38480;DHT22;62333;51.980;5.934;2023-06-19T02:36:42;23.30;60.00
38480;DHT22;62333;51.980;5.934;2023-06-19T02:39:08;23.30;60.50
38480;DHT22;62333;51.980;5.934;2023-06-19T02:41:34;23.20;60.70
38480;DHT22;62333;51.980;5.934;2023-06-19T02:44:00;23.10;61.10
38480;DHT22;62333;51.980;5.934;2023-06-19T02:46:26;23.00;61.50
38480;DHT22;62333;51.980;5.934;2023-06-19T02:48:51;23.00;62.00
38480;DHT22;62333;51.980;5.934;2023-06-19T02:51:17;22.90;62.20
38480;DHT22;62333;51.980;5.934;2023-06-19T02:53:43;22.90;62.30
38480;DHT22;62333;51.980;5.934;2023-06-19T02:56:11;22.80;62.80
38480;DHT22;62333;51.980;5.934;2023-06-19T02:58:36;22.70;63.10
38480;DHT22;62333;51.980;5.934;2023-06-19T03:01:03;22.70;63.80
38480;DHT22;62333;51.980;5.934;2023-06-19T03:03:29;22.60;64.00
38480;DHT22;62333;51.980;5.934;2023-06-19T03:05:56;22.50;64.40
38480;DHT22;62333;51.980;5.934;2023-06-19T03:08:21;22.50;64.80
38480;DHT22;62333;51.980;5.934;2023-06-19T03:10:47;22.40;65.00
38480;DHT22;62333;51.980;5.934;2023-06-19T03:13:13;22.40;65.30
38480;DHT22;62333;51.980;5.934;2023-06-19T03:15:39;22.40;65.90
38480;DHT22;62333;51.980;5.934;2023-06-19T03:18:04;22.30;66.40
38480;DHT22;62333;51.980;5.934;2023-06-19T03:20:32;22.20;66.40
38480;DHT22;62333;51.980;5.934;2023-06-19T03:22:58;22.20;66.50
38480;DHT22;62333;51.980;5.934;2023-06-19T03:25:24;22.20;66.40
38480;DHT22;62333;51.980;5.934;2023-06-19T03:27:50;22.30;66.40
38480;DHT22;62333;51.980;5.934;2023-06-19T03:30:16;22.20;66.40
38480;DHT22;62333;51.980;5.934;2023-06-19T03:32:44;22.20;66.30
38480;DHT22;62333;51.980;5.934;2023-06-19T03:35:10;22.30;66.10
38480;DHT22;62333;51.980;5.934;2023-06-19T03:37:36;22.30;66.50
38480;DHT22;62333;51.980;5.934;2023-06-19T03:40:01;22.20;66.70
38480;DHT22;62333;51.980;5.934;2023-06-19T03:42:28;22.20;67.10
38480;DHT22;62333;51.980;5.934;2023-06-19T03:44:54;22.20;67.10
38480;DHT22;62333;51.980;5.934;2023-06-19T03:47:21;22.20;67.10
38480;DHT22;62333;51.980;5.934;2023-06-19T03:49:46;22.20;67.10
38480;DHT22;62333;51.980;5.934;2023-06-19T03:52:14;22.20;67.20
38480;DHT22;62333;51.980;5.934;2023-06-19T03:54:39;22.20;67.40
38480;DHT22;62333;51.980;5.934;2023-06-19T03:57:05;22.20;67.30
38480;DHT22;62333;51.980;5.934;2023-06-19T03:59:31;22.30;67.40
38480;DHT22;62333;51.980;5.934;2023-06-19T04:01:57;22.20;67.40
38480;DHT22;62333;51.980;5.934;2023-06-19T04:04:23;22.30;67.40
38480;DHT22;62333;51.980;5.934;2023-06-19T04:06:48;22.30;67.70
38480;DHT22;62333;51.980;5.934;2023-06-19T04:09:14;22.30;67.90
38480;DHT22;62333;51.980;5.934;2023-06-19T04:11:39;22.20;68.20
38480;DHT22;62333;51.980;5.934;2023-06-19T04:14:05;22.10;68.40
38480;DHT22;62333;51.980;5.934;2023-06-19T04:16:31;22.10;68.40
38480;DHT22;62333;51.980;5.934;2023-06-19T04:18:56;22.20;68.40
38480;DHT22;62333;51.980;5.934;2023-06-19T04:21:22;22.20;68.50
38480;DHT22;62333;51.980;5.934;2023-06-19T04:23:48;22.20;69.00
38480;DHT22;62333;51.980;5.934;2023-06-19T04:26:13;22.10;69.10
38480;DHT22;62333;51.980;5.934;2023-06-19T04:28:39;22.20;69.00
38480;DHT22;62333;51.980;5.934;2023-06-19T04:31:05;22.10;69.50
38480;DHT22;62333;51.980;5.934;2023-06-19T04:33:30;22.10;69.80
38480;DHT22;62333;51.980;5.934;2023-06-19T04:35:56;22.10;69.80
38480;DHT22;62333;51.980;5.934;2023-06-19T04:38:22;22.10;70.20
38480;DHT22;62333;51.980;5.934;2023-06-19T04:40:51;22.10;70.30
38480;DHT22;62333;51.980;5.934;2023-06-19T04:43:17;22.10;70.50
38480;DHT22;62333;51.980;5.934;2023-06-19T04:45:43;22.00;70.70
38480;DHT22;62333;51.980;5.934;2023-06-19T04:48:09;22.10;70.90
38480;DHT22;62333;51.980;5.934;2023-06-19T04:50:35;22.10;71.10
38480;DHT22;62333;51.980;5.934;2023-06-19T04:53:00;22.10;71.30
38480;DHT22;62333;51.980;5.934;2023-06-19T04:55:26;22.10;71.50
38480;DHT22;62333;51.980;5.934;2023-06-19T04:57:52;22.10;71.50
38480;DHT22;62333;51.980;5.934;2023-06-19T05:00:18;22.10;71.70
38480;DHT22;62333;51.980;5.934;2023-06-19T05:02:48;22.10;71.90
38480;DHT22;62333;51.980;5.934;2023-06-19T05:05:15;22.10;71.80
38480;DHT22;62333;51.980;5.934;2023-06-19T05:07:41;22.10;72.40
38480;DHT22;62333;51.980;5.934;2023-06-19T05:10:07;22.00;72.70
38480;DHT22;62333;51.980;5.934;2023-06-19T05:12:34;22.00;72.90
38480;DHT22;62333;51.980;5.934;2023-06-19T05:15:01;22.00;73.00
38480;DHT22;62333;51.980;5.934;2023-06-19T05:17:26;21.90;73.10
38480;DHT22;62333;51.980;5.934;2023-06-19T05:19:52;21.90;73.20
38480;DHT22;62333;51.980;5.934;2023-06-19T05:22:18;21.90;73.70
38480;DHT22;62333;51.980;5.934;2023-06-19T05:24:44;21.80;74.20
38480;DHT22;62333;51.980;5.934;2023-06-19T05:27:10;21.80;74.40
38480;DHT22;62333;51.980;5.934;2023-06-19T05:29:36;21.80;74.90
38480;DHT22;62333;51.980;5.934;2023-06-19T05:32:01;21.70;75.00
38480;DHT22;62333;51.980;5.934;2023-06-19T05:34:27;21.70;75.20
38480;DHT22;62333;51.980;5.934;2023-06-19T05:36:53;21.70;75.50
38480;DHT22;62333;51.980;5.934;2023-06-19T05:39:19;21.70;75.80
38480;DHT22;62333;51.980;5.934;2023-06-19T05:41:44;21.70;75.90
38480;DHT22;62333;51.980;5.934;2023-06-19T05:44:11;21.70;76.10
38480;DHT22;62333;51.980;5.934;2023-06-19T05:46:41;21.80;76.30
38480;DHT22;62333;51.980;5.934;2023-06-19T05:49:07;21.80;76.20
38480;DHT22;62333;51.980;5.934;2023-06-19T05:51:33;21.80;76.30
38480;DHT22;62333;51.980;5.934;2023-06-19T05:53:58;21.80;76.10
38480;DHT22;62333;51.980;5.934;2023-06-19T05:56:29;21.90;76.10
38480;DHT22;62333;51.980;5.934;2023-06-19T05:58:55;22.00;76.10
38480;DHT22;62333;51.980;5.934;2023-06-19T06:01:20;22.00;75.90
38480;DHT22;62333;51.980;5.934;2023-06-19T06:03:46;22.10;75.80
38480;DHT22;62333;51.980;5.934;2023-06-19T06:06:12;22.10;75.70
38480;DHT22;62333;51.980;5.934;2023-06-19T06:08:37;22.10;75.70
38480;DHT22;62333;51.980;5.934;2023-06-19T06:11:03;22.20;75.60
38480;DHT22;62333;51.980;5.934;2023-06-19T06:13:28;22.20;75.60
38480;DHT22;62333;51.980;5.934;2023-06-19T06:15:54;22.20;75.50
38480;DHT22;62333;51.980;5.934;2023-06-19T06:18:20;22.20;75.40
38480;DHT22;62333;51.980;5.934;2023-06-19T06:20:45;22.30;75.40
38480;DHT22;62333;51.980;5.934;2023-06-19T06:23:11;22.20;75.30
38480;DHT22;62333;51.980;5.934;2023-06-19T06:25:37;22.30;75.40
38480;DHT22;62333;51.980;5.934;2023-06-19T06:28:02;22.30;75.50
38480;DHT22;62333;51.980;5.934;2023-06-19T06:30:28;22.20;75.80
38480;DHT22;62333;51.980;5.934;2023-06-19T06:32:54;22.20;76.20
38480;DHT22;62333;51.980;5.934;2023-06-19T06:35:19;22.20;76.30
38480;DHT22;62333;51.980;5.934;2023-06-19T06:37:45;22.20;76.40
38480;DHT22;62333;51.980;5.934;2023-06-19T06:40:12;22.10;76.40
38480;DHT22;62333;51.980;5.934;2023-06-19T06:42:38;22.10;76.60
38480;DHT22;62333;51.980;5.934;2023-06-19T06:45:07;22.10;76.70
38480;DHT22;62333;51.980;5.934;2023-06-19T06:47:34;22.10;76.60
38480;DHT22;62333;51.980;5.934;2023-06-19T06:50:00;22.10;76.80
38480;DHT22;62333;51.980;5.934;2023-06-19T06:52:26;22.10;76.80
38480;DHT22;62333;51.980;5.934;2023-06-19T06:54:53;22.10;76.80
38480;DHT22;62333;51.980;5.934;2023-06-19T06:57:19;22.10;76.80
38480;DHT22;62333;51.980;5.934;2023-06-19T06:59:44;22.10;76.80
38480;DHT22;62333;51.980;5.934;2023-06-19T07:02:10;22.10;76.80
38480;DHT22;62333;51.980;5.934;2023-06-19T07:04:35;22.10;76.80
38480;DHT22;62333;51.980;5.934;2023-06-19T07:07:01;22.20;76.70
38480;DHT22;62333;51.980;5.934;2023-06-19T07:09:29;22.20;76.60
38480;DHT22;62333;51.980;5.934;2023-06-19T07:11:54;22.20;76.50
38480;DHT22;62333;51.980;5.934;2023-06-19T07:14:20;22.20;76.40
38480;DHT22;62333;51.980;5.934;2023-06-19T07:16:46;22.20;76.30
38480;DHT22;62333;51.980;5.934;2023-06-19T07:19:12;22.20;76.20
38480;DHT22;62333;51.980;5.934;2023-06-19T07:21:38;22.30;76.10
38480;DHT22;62333;51.980;5.934;2023-06-19T07:24:05;22.30;75.60
38480;DHT22;62333;51.980;5.934;2023-06-19T07:26:31;22.40;74.90
38480;DHT22;62333;51.980;5.934;2023-06-19T07:28:57;22.40;74.40
38480;DHT22;62333;51.980;5.934;2023-06-19T07:31:22;22.50;74.20
38480;DHT22;62333;51.980;5.934;2023-06-19T07:33:48;22.50;73.60
38480;DHT22;62333;51.980;5.934;2023-06-19T07:36:14;22.60;72.70
38480;DHT22;62333;51.980;5.934;2023-06-19T07:38:42;22.60;72.20
38480;DHT22;62333;51.980;5.934;2023-06-19T07:41:08;22.70;70.90
38480;DHT22;62333;51.980;5.934;2023-06-19T07:43:36;22.80;70.20
38480;DHT22;62333;51.980;5.934;2023-06-19T07:46:01;22.90;69.80
38480;DHT22;62333;51.980;5.934;2023-06-19T07:48:27;23.00;69.50
38480;DHT22;62333;51.980;5.934;2023-06-19T07:50:53;23.30;69.20
38480;DHT22;62333;51.980;5.934;2023-06-19T07:53:19;23.40;68.20
38480;DHT22;62333;51.980;5.934;2023-06-19T07:55:45;23.50;67.20
38480;DHT22;62333;51.980;5.934;2023-06-19T07:58:11;23.50;65.80
38480;DHT22;62333;51.980;5.934;2023-06-19T08:00:37;23.60;65.90
38480;DHT22;62333;51.980;5.934;2023-06-19T08:03:03;23.70;65.70
38480;DHT22;62333;51.980;5.934;2023-06-19T08:05:29;23.80;65.50
38480;DHT22;62333;51.980;5.934;2023-06-19T08:07:56;23.90;65.30
38480;DHT22;62333;51.980;5.934;2023-06-19T08:10:22;24.00;64.80
38480;DHT22;62333;51.980;5.934;2023-06-19T08:12:47;24.10;63.80
38480;DHT22;62333;51.980;5.934;2023-06-19T08:15:13;24.20;63.30
38480;DHT22;62333;51.980;5.934;2023-06-19T08:17:39;24.30;62.90
38480;DHT22;62333;51.980;5.934;2023-06-19T08:20:06;24.20;62.70
38480;DHT22;62333;51.980;5.934;2023-06-19T08:22:33;24.20;62.50
38480;DHT22;62333;51.980;5.934;2023-06-19T08:24:58;24.20;62.40
38480;DHT22;62333;51.980;5.934;2023-06-19T08:27:24;24.20;62.40
38480;DHT22;62333;51.980;5.934;2023-06-19T08:29:49;24.30;62.30
38480;DHT22;62333;51.980;5.934;2023-06-19T08:32:16;24.30;61.50
38480;DHT22;62333;51.980;5.934;2023-06-19T08:34:42;24.40;61.20
38480;DHT22;62333;51.980;5.934;2023-06-19T08:37:08;24.40;60.90
38480;DHT22;62333;51.980;5.934;2023-06-19T08:39:34;24.40;60.80
38480;DHT22;62333;51.980;5.934;2023-06-19T08:42:01;24.40;60.90
38480;DHT22;62333;51.980;5.934;2023-06-19T08:44:28;24.50;60.70
38480;DHT22;62333;51.980;5.934;2023-06-19T08:46:54;24.50;60.50
38480;DHT22;62333;51.980;5.934;2023-06-19T08:49:19;24.60;60.50
38480;DHT22;62333;51.980;5.934;2023-06-19T08:51:45;24.60;60.60
38480;DHT22;62333;51.980;5.934;2023-06-19T08:54:11;24.80;60.80
38480;DHT22;62333;51.980;5.934;2023-06-19T08:56:36;24.90;60.80
38480;DHT22;62333;51.980;5.934;2023-06-19T08:59:11;25.00;60.40
38480;DHT22;62333;51.980;5.934;2023-06-19T09:01:37;25.10;60.20
38480;DHT22;62333;51.980;5.934;2023-06-19T09:04:13;25.20;60.20
38480;DHT22;62333;51.980;5.934;2023-06-19T09:07:01;25.30;60.00
38480;DHT22;62333;51.980;5.934;2023-06-19T09:09:30;25.50;59.90
38480;DHT22;62333;51.980;5.934;2023-06-19T09:12:03;25.60;59.50
38480;DHT22;62333;51.980;5.934;2023-06-19T09:16:57;25.80;59.10
38480;DHT22;62333;51.980;5.934;2023-06-19T09:19:23;25.70;58.70
38480;DHT22;62333;51.980;5.934;2023-06-19T09:21:49;25.70;58.70
38480;DHT22;62333;51.980;5.934;2023-06-19T09:24:15;25.70;58.90
38480;DHT22;62333;51.980;5.934;2023-06-19T09:26:41;25.70;59.00
38480;DHT22;62333;51.980;5.934;2023-06-19T09:29:13;25.70;59.00
38480;DHT22;62333;51.980;5.934;2023-06-19T09:31:41;25.70;59.10
38480;DHT22;62333;51.980;5.934;2023-06-19T09:34:08;25.80;59.10
38480;DHT22;62333;51.980;5.934;2023-06-19T09:36:35;25.80;58.90
38480;DHT22;62333;51.980;5.934;2023-06-19T09:39:02;25.90;58.80
38480;DHT22;62333;51.980;5.934;2023-06-19T09:41:29;26.00;58.90
38480;DHT22;62333;51.980;5.934;2023-06-19T09:43:55;26.10;58.80
38480;DHT22;62333;51.980;5.934;2023-06-19T09:46:30;26.20;58.30
38480;DHT22;62333;51.980;5.934;2023-06-19T09:49:00;26.30;57.90
38480;DHT22;62333;51.980;5.934;2023-06-19T09:51:37;26.40;57.70
38480;DHT22;62333;51.980;5.934;2023-06-19T09:54:05;26.50;57.20
38480;DHT22;62333;51.980;5.934;2023-06-19T09:56:33;26.60;57.10
38480;DHT22;62333;51.980;5.934;2023-06-19T09:58:59;26.70;56.70
38480;DHT22;62333;51.980;5.934;2023-06-19T10:01:27;26.80;56.60
38480;DHT22;62333;51.980;5.934;2023-06-19T10:04:13;26.90;56.20
38480;DHT22;62333;51.980;5.934;2023-06-19T10:06:44;27.00;55.90
38480;DHT22;62333;51.980;5.934;2023-06-19T10:09:10;27.00;55.90
38480;DHT22;62333;51.980;5.934;2023-06-19T10:11:50;27.10;55.40
38480;DHT22;62333;51.980;5.934;2023-06-19T10:14:17;27.20;55.40
38480;DHT22;62333;51.980;5.934;2023-06-19T10:16:44;27.20;55.20
38480;DHT22;62333;51.980;5.934;2023-06-19T10:19:18;27.40;54.80
38480;DHT22;62333;51.980;5.934;2023-06-19T10:21:48;27.50;54.30
38480;DHT22;62333;51.980;5.934;2023-06-19T10:24:19;27.60;53.80
38480;DHT22;62333;51.980;5.934;2023-06-19T10:26:59;27.70;54.00
38480;DHT22;62333;51.980;5.934;2023-06-19T10:29:26;27.70;53.80
38480;DHT22;62333;51.980;5.934;2023-06-19T10:31:53;27.80;53.60
38480;DHT22;62333;51.980;5.934;2023-06-19T10:34:19;28.00;53.60
38480;DHT22;62333;51.980;5.934;2023-06-19T10:36:45;28.10;53.30
38480;DHT22;62333;51.980;5.934;2023-06-19T10:39:10;28.20;52.70
38480;DHT22;62333;51.980;5.934;2023-06-19T10:41:40;28.20;52.60
38480;DHT22;62333;51.980;5.934;2023-06-19T10:44:07;28.20;52.40
38480;DHT22;62333;51.980;5.934;2023-06-19T10:46:38;28.30;52.60
38480;DHT22;62333;51.980;5.934;2023-06-19T10:49:06;28.40;52.40
38480;DHT22;62333;51.980;5.934;2023-06-19T10:51:42;28.50;51.90
38480;DHT22;62333;51.980;5.934;2023-06-19T10:54:09;28.70;52.00
38480;DHT22;62333;51.980;5.934;2023-06-19T10:56:35;29.00;51.60
38480;DHT22;62333;51.980;5.934;2023-06-19T10:59:07;29.20;51.10
38480;DHT22;62333;51.980;5.934;2023-06-19T11:01:39;29.40;50.20
38480;DHT22;62333;51.980;5.934;2023-06-19T11:04:06;29.60;49.90
38480;DHT22;62333;51.980;5.934;2023-06-19T11:06:32;29.60;49.80
38480;DHT22;62333;51.980;5.934;2023-06-19T11:08:58;29.70;49.60
38480;DHT22;62333;51.980;5.934;2023-06-19T11:11:38;29.80;49.20
38480;DHT22;62333;51.980;5.934;2023-06-19T11:14:04;30.00;49.00
38480;DHT22;62333;51.980;5.934;2023-06-19T11:16:31;30.10;48.60
38480;DHT22;62333;51.980;5.934;2023-06-19T11:18:57;30.30;48.20
38480;DHT22;62333;51.980;5.934;2023-06-19T11:21:30;30.50;47.70
38480;DHT22;62333;51.980;5.934;2023-06-19T11:23:58;30.70;47.60
38480;DHT22;62333;51.980;5.934;2023-06-19T11:26:27;31.00;47.30
38480;DHT22;62333;51.980;5.934;2023-06-19T11:28:53;31.30;46.40
38480;DHT22;62333;51.980;5.934;2023-06-19T11:31:25;31.50;46.00
38480;DHT22;62333;51.980;5.934;2023-06-19T11:34:00;31.60;45.60
38480;DHT22;62333;51.980;5.934;2023-06-19T11:36:28;31.80;45.30
38480;DHT22;62333;51.980;5.934;2023-06-19T11:38:55;32.00;45.20
38480;DHT22;62333;51.980;5.934;2023-06-19T11:41:27;32.10;44.90
38480;DHT22;62333;51.980;5.934;2023-06-19T11:44:07;32.20;44.30
38480;DHT22;62333;51.980;5.934;2023-06-19T11:46:34;32.50;44.00
38480;DHT22;62333;51.980;5.934;2023-06-19T11:49:14;32.70;43.30
38480;DHT22;62333;51.980;5.934;2023-06-19T11:51:40;32.90;43.00
38480;DHT22;62333;51.980;5.934;2023-06-19T11:54:08;33.30;42.60
38480;DHT22;62333;51.980;5.934;2023-06-19T11:56:36;33.70;42.20
38480;DHT22;62333;51.980;5.934;2023-06-19T11:59:02;34.10;41.40
38480;DHT22;62333;51.980;5.934;2023-06-19T12:01:35;34.50;41.20
38480;DHT22;62333;51.980;5.934;2023-06-19T12:04:02;34.90;40.30
38480;DHT22;62333;51.980;5.934;2023-06-19T12:06:29;35.20;39.30
38480;DHT22;62333;51.980;5.934;2023-06-19T12:08:55;35.50;39.40
38480;DHT22;62333;51.980;5.934;2023-06-19T12:11:20;35.70;39.10
38480;DHT22;62333;51.980;5.934;2023-06-19T12:13:47;35.90;38.20
38480;DHT22;62333;51.980;5.934;2023-06-19T12:16:13;36.10;38.00
38480;DHT22;62333;51.980;5.934;2023-06-19T12:18:39;36.20;37.90
38480;DHT22;62333;51.980;5.934;2023-06-19T12:21:06;36.60;37.50
38480;DHT22;62333;51.980;5.934;2023-06-19T12:23:32;37.00;37.40
38480;DHT22;62333;51.980;5.934;2023-06-19T12:25:58;37.30;36.30
38480;DHT22;62333;51.980;5.934;2023-06-19T12:28:24;37.60;36.00
38480;DHT22;62333;51.980;5.934;2023-06-19T12:30:53;38.10;35.40
38480;DHT22;62333;51.980;5.934;2023-06-19T12:33:19;38.30;34.10
38480;DHT22;62333;51.980;5.934;2023-06-19T12:35:48;38.40;33.90
38480;DHT22;62333;51.980;5.934;2023-06-19T12:38:14;38.50;33.80
38480;DHT22;62333;51.980;5.934;2023-06-19T12:40:40;38.50;33.70
38480;DHT22;62333;51.980;5.934;2023-06-19T12:43:06;38.70;33.80
38480;DHT22;62333;51.980;5.934;2023-06-19T12:45:31;38.80;33.70
38480;DHT22;62333;51.980;5.934;2023-06-19T12:47:57;39.00;33.50
38480;DHT22;62333;51.980;5.934;2023-06-19T12:50:23;38.90;33.20
38480;DHT22;62333;51.980;5.934;2023-06-19T12:52:50;39.00;33.40
38480;DHT22;62333;51.980;5.934;2023-06-19T12:55:16;39.00;33.40
38480;DHT22;62333;51.980;5.934;2023-06-19T12:57:41;38.90;33.20
38480;DHT22;62333;51.980;5.934;2023-06-19T13:00:11;38.80;33.10
38480;DHT22;62333;51.980;5.934;2023-06-19T13:02:37;38.70;33.40
38480;DHT22;62333;51.980;5.934;2023-06-19T13:05:05;38.60;33.00
38480;DHT22;62333;51.980;5.934;2023-06-19T13:07:31;38.40;33.00
38480;DHT22;62333;51.980;5.934;2023-06-19T13:09:56;38.20;33.80
38480;DHT22;62333;51.980;5.934;2023-06-19T13:12:22;37.90;33.30
38480;DHT22;62333;51.980;5.934;2023-06-19T13:14:48;37.40;33.50
38480;DHT22;62333;51.980;5.934;2023-06-19T13:17:13;36.90;34.20
38480;DHT22;62333;51.980;5.934;2023-06-19T13:19:40;36.30;34.10
38480;DHT22;62333;51.980;5.934;2023-06-19T13:22:05;35.70;34.70
38480;DHT22;62333;51.980;5.934;2023-06-19T13:24:31;35.10;35.50
38480;DHT22;62333;51.980;5.934;2023-06-19T13:26:57;34.60;36.00
38480;DHT22;62333;51.980;5.934;2023-06-19T13:29:23;34.20;36.60
38480;DHT22;62333;51.980;5.934;2023-06-19T13:31:48;34.00;37.20
38480;DHT22;62333;51.980;5.934;2023-06-19T13:34:14;33.70;37.50
38480;DHT22;62333;51.980;5.934;2023-06-19T13:36:40;33.40;37.80
38480;DHT22;62333;51.980;5.934;2023-06-19T13:39:06;33.20;38.10
38480;DHT22;62333;51.980;5.934;2023-06-19T13:41:32;32.90;38.00
38480;DHT22;62333;51.980;5.934;2023-06-19T13:43:59;32.80;38.00
38480;DHT22;62333;51.980;5.934;2023-06-19T13:46:25;32.70;38.10
38480;DHT22;62333;51.980;5.934;2023-06-19T13:48:51;32.60;38.40
38480;DHT22;62333;51.980;5.934;2023-06-19T13:51:18;32.60;38.50
38480;DHT22;62333;51.980;5.934;2023-06-19T13:53:44;32.60;38.50
38480;DHT22;62333;51.980;5.934;2023-06-19T13:56:10;32.50;38.30
38480;DHT22;62333;51.980;5.934;2023-06-19T13:58:36;32.40;38.70
38480;DHT22;62333;51.980;5.934;2023-06-19T14:01:01;32.20;39.00
38480;DHT22;62333;51.980;5.934;2023-06-19T14:03:27;32.20;39.30
38480;DHT22;62333;51.980;5.934;2023-06-19T14:05:53;32.10;39.40
38480;DHT22;62333;51.980;5.934;2023-06-19T14:08:18;31.80;39.40
38480;DHT22;62333;51.980;5.934;2023-06-19T14:10:44;31.70;39.70
38480;DHT22;62333;51.980;5.934;2023-06-19T14:13:10;31.40;39.90
38480;DHT22;62333;51.980;5.934;2023-06-19T14:15:35;31.20;40.20
38480;DHT22;62333;51.980;5.934;2023-06-19T14:18:01;31.10;40.50
38480;DHT22;62333;51.980;5.934;2023-06-19T14:20:27;30.90;40.80
38480;DHT22;62333;51.980;5.934;2023-06-19T14:22:53;30.80;41.10
38480;DHT22;62333;51.980;5.934;2023-06-19T14:25:18;30.70;41.30
38480;DHT22;62333;51.980;5.934;2023-06-19T14:27:44;30.60;41.60
38480;DHT22;62333;51.980;5.934;2023-06-19T14:30:10;30.50;41.40
38480;DHT22;62333;51.980;5.934;2023-06-19T14:32:36;30.40;41.30
38480;DHT22;62333;51.980;5.934;2023-06-19T14:35:05;30.40;41.50
38480;DHT22;62333;51.980;5.934;2023-06-19T14:37:31;30.40;41.70
38480;DHT22;62333;51.980;5.934;2023-06-19T14:39:57;30.30;42.10
38480;DHT22;62333;51.980;5.934;2023-06-19T14:42:23;30.30;42.40
38480;DHT22;62333;51.980;5.934;2023-06-19T14:44:49;30.30;42.60
38480;DHT22;62333;51.980;5.934;2023-06-19T14:47:14;30.20;42.50
38480;DHT22;62333;51.980;5.934;2023-06-19T14:49:40;30.10;42.60
38480;DHT22;62333;51.980;5.934;2023-06-19T14:52:06;30.10;42.70
38480;DHT22;62333;51.980;5.934;2023-06-19T14:54:32;30.00;42.90
38480;DHT22;62333;51.980;5.934;2023-06-19T14:56:57;30.00;43.00
38480;DHT22;62333;51.980;5.934;2023-06-19T14:59:24;30.00;43.10
38480;DHT22;62333;51.980;5.934;2023-06-19T15:01:50;30.00;43.10
38480;DHT22;62333;51.980;5.934;2023-06-19T15:04:15;30.00;43.10
38480;DHT22;62333;51.980;5.934;2023-06-19T15:06:41;30.10;43.20
38480;DHT22;62333;51.980;5.934;2023-06-19T15:09:07;30.10;43.10
38480;DHT22;62333;51.980;5.934;2023-06-19T15:11:33;30.00;43.10
38480;DHT22;62333;51.980;5.934;2023-06-19T15:13:59;30.00;43.20
38480;DHT22;62333;51.980;5.934;2023-06-19T15:16:25;30.00;43.30
38480;DHT22;62333;51.980;5.934;2023-06-19T15:18:51;30.00;43.20
38480;DHT22;62333;51.980;5.934;2023-06-19T15:21:17;30.00;43.00
38480;DHT22;62333;51.980;5.934;2023-06-19T15:23:43;29.90;42.90
38480;DHT22;62333;51.980;5.934;2023-06-19T15:26:09;29.90;42.90
38480;DHT22;62333;51.980;5.934;2023-06-19T15:28:35;29.90;43.00
38480;DHT22;62333;51.980;5.934;2023-06-19T15:31:02;29.80;43.40
38480;DHT22;62333;51.980;5.934;2023-06-19T15:33:28;29.80;43.50